createdAt,value
2019-01-20T03:31:07.652Z,8.80
2019-01-20T03:33:36.909Z,9.67
2019-01-20T03:36:06.213Z,10.20
2019-01-20T03:38:35.470Z,11.47
2019-01-20T03:41:06.413Z,10.63
2019-01-20T03:43:35.734Z,10.93
2019-01-20T03:46:05.023Z,9.57
2019-01-20T03:48:34.604Z,9.80
2019-01-20T03:51:04.400Z,9.30
2019-01-20T03:53:33.691Z,7.87
2019-01-20T03:56:04.504Z,11.27
2019-01-20T03:58:33.772Z,10.90
2019-01-20T04:01:05.199Z,9.33
2019-01-20T04:03:34.496Z,10.13
2019-01-20T04:06:05.706Z,10.17
2019-01-20T04:08:35.009Z,10.03
2019-01-20T04:11:04.316Z,10.83
2019-01-20T04:13:33.816Z,9.70
2019-01-20T04:16:05.313Z,10.03
2019-01-20T04:18:34.563Z,9.60
2019-01-20T04:21:04.135Z,9.33
2019-01-20T04:23:33.423Z,9.83
2019-01-20T04:26:03.960Z,7.87
2019-01-20T04:28:33.268Z,10.53
2019-01-20T04:31:04.794Z,9.47
2019-01-20T04:33:34.039Z,9.60
2019-01-20T04:36:04.147Z,8.73
2019-01-20T04:38:34.520Z,8.93
2019-01-20T04:41:08.043Z,8.40
2019-01-20T04:43:37.336Z,8.60
2019-01-20T04:46:06.597Z,9.57
2019-01-20T04:48:35.920Z,9.40
2019-01-20T04:51:06.073Z,7.97
2019-01-20T04:53:37.126Z,9.27
2019-01-20T04:56:06.432Z,8.73
2019-01-20T04:58:35.966Z,10.00
2019-01-20T05:01:05.271Z,7.73
2019-01-20T05:03:34.851Z,7.50
2019-01-20T05:06:05.566Z,9.93
2019-01-20T05:08:34.873Z,8.43
2019-01-20T05:11:06.114Z,9.07
2019-01-20T05:13:36.503Z,7.80
2019-01-20T05:16:05.767Z,8.30
2019-01-20T05:18:35.678Z,8.13
2019-01-20T05:21:05.028Z,8.50
2019-01-20T05:23:34.750Z,9.10
2019-01-20T05:26:05.438Z,9.77
2019-01-20T05:28:35.343Z,8.77
2019-01-20T05:31:04.643Z,8.27
2019-01-20T05:33:33.896Z,11.33
2019-01-20T05:36:06.201Z,9.27
2019-01-20T05:38:36.173Z,10.40
2019-01-20T05:41:06.210Z,9.37
2019-01-20T05:43:35.508Z,10.10
2019-01-20T05:46:05.443Z,8.80
2019-01-20T05:48:36.036Z,9.47
2019-01-20T05:51:05.644Z,9.33
2019-01-20T05:53:34.927Z,8.40
2019-01-20T05:56:04.763Z,9.77
2019-01-20T05:58:34.093Z,11.33
2019-01-20T06:01:03.920Z,12.47
2019-01-20T06:03:34.166Z,11.43
2019-01-20T06:06:04.181Z,10.00
2019-01-20T06:08:34.189Z,10.57
2019-01-20T06:11:05.761Z,10.90
2019-01-20T06:13:36.416Z,12.10
2019-01-20T06:16:05.667Z,12.30
2019-01-20T06:18:35.787Z,10.50
2019-01-20T06:21:05.427Z,9.57
2019-01-20T06:23:35.333Z,10.13
2019-01-20T06:26:06.012Z,11.07
2019-01-20T06:28:35.463Z,12.70
2019-01-20T06:31:04.827Z,11.17
2019-01-20T06:33:34.957Z,11.87
2019-01-20T06:36:06.696Z,11.70
2019-01-20T06:38:36.511Z,10.00
2019-01-20T06:41:06.451Z,8.70
2019-01-20T06:43:35.772Z,10.03
2019-01-20T06:46:05.343Z,9.47
2019-01-20T06:48:36.678Z,9.87
2019-01-20T06:51:06.016Z,10.63
2019-01-20T06:53:35.311Z,9.27
2019-01-20T06:56:05.635Z,10.00
2019-01-20T06:58:35.896Z,10.60
2019-01-20T07:01:05.157Z,10.07
2019-01-20T07:03:34.704Z,10.60
2019-01-20T07:06:05.079Z,10.30
2019-01-20T07:08:34.331Z,12.77
2019-01-20T07:11:06.395Z,10.20
2019-01-20T07:13:35.652Z,13.00
2019-01-20T07:16:05.690Z,11.90
2019-01-20T07:18:34.948Z,13.53
2019-01-20T07:21:05.227Z,13.40
2019-01-20T07:23:34.492Z,11.07
2019-01-20T07:26:04.156Z,12.93
2019-01-20T07:28:33.904Z,11.87
2019-01-20T07:31:03.726Z,12.40
2019-01-20T07:33:33.595Z,11.70
2019-01-20T07:36:02.843Z,11.63
2019-01-20T07:38:32.711Z,11.20
2019-01-20T07:41:02.239Z,13.13
2019-01-20T07:43:32.749Z,11.60
2019-01-20T07:46:04.048Z,12.30
2019-01-20T07:48:33.912Z,12.57
2019-01-20T07:51:04.540Z,14.13
2019-01-20T07:53:34.115Z,15.27
2019-01-20T07:56:03.372Z,12.87
2019-01-20T07:58:32.799Z,14.53
2019-01-20T08:01:04.056Z,14.03
2019-01-20T08:03:33.680Z,11.50
2019-01-20T08:06:04.139Z,14.63
2019-01-20T08:08:33.968Z,11.07
2019-01-20T08:11:04.072Z,13.33
2019-01-20T08:13:33.325Z,16.33
2019-01-20T08:16:04.079Z,13.80
2019-01-20T08:18:33.415Z,13.70
2019-01-20T08:21:03.291Z,17.37
2019-01-20T08:23:32.835Z,14.63
2019-01-20T08:26:02.435Z,14.67
2019-01-20T08:28:31.756Z,18.43
2019-01-20T08:31:01.094Z,21.50
2019-01-20T08:33:31.415Z,18.07
2019-01-20T08:36:00.678Z,23.53
2019-01-20T08:38:29.940Z,24.80
2019-01-20T08:40:59.275Z,22.90
2019-01-20T08:43:31.976Z,21.13
2019-01-20T08:46:08.843Z,20.53
2019-01-20T08:48:38.444Z,18.20
2019-01-20T08:51:07.833Z,18.90
2019-01-20T08:53:37.764Z,18.30
2019-01-20T08:56:07.024Z,18.40
2019-01-20T08:58:36.335Z,16.53
2019-01-20T09:01:05.635Z,15.83
2019-01-20T09:03:34.896Z,15.13
2019-01-20T09:06:04.270Z,14.90
2019-01-20T09:08:33.880Z,17.63
2019-01-20T09:11:04.559Z,18.30
2019-01-20T09:13:39.519Z,18.50
2019-01-20T09:16:05.216Z,17.50
2019-01-20T09:18:34.478Z,17.37
2019-01-20T09:21:04.316Z,19.40
2019-01-20T09:23:33.614Z,17.63
2019-01-20T09:26:04.040Z,19.03
2019-01-20T09:28:33.877Z,17.17
2019-01-20T09:31:03.930Z,15.87
2019-01-20T09:33:33.452Z,15.23
2019-01-20T09:36:02.708Z,20.63
2019-01-20T09:38:33.018Z,17.67
2019-01-20T09:41:05.082Z,17.30
2019-01-20T09:43:34.857Z,17.23
2019-01-20T09:46:04.189Z,17.80
2019-01-20T09:48:33.764Z,18.13
2019-01-20T09:51:03.863Z,18.07
2019-01-20T09:53:33.120Z,17.80
2019-01-20T09:56:02.384Z,17.23
2019-01-20T09:58:31.996Z,22.53
2019-01-20T10:01:02.832Z,19.47
2019-01-20T10:03:32.136Z,18.33
2019-01-20T10:06:03.486Z,20.10
2019-01-20T10:08:33.357Z,18.90
2019-01-20T10:11:04.034Z,22.80
2019-01-20T10:13:33.641Z,18.97
2019-01-20T10:16:03.467Z,16.97
2019-01-20T10:18:32.772Z,15.33
2019-01-20T10:21:02.671Z,17.70
2019-01-20T10:23:31.939Z,19.67
2019-01-20T10:26:03.310Z,16.40
2019-01-20T10:28:33.548Z,15.80
2019-01-20T10:31:05.972Z,14.67
2019-01-20T10:33:36.350Z,18.10
2019-01-20T10:36:07.148Z,15.93
2019-01-20T10:38:37.425Z,18.80
2019-01-20T10:41:12.532Z,17.23
2019-01-20T10:43:42.667Z,17.73
2019-01-20T10:46:12.493Z,15.70
2019-01-20T10:48:41.783Z,19.77
2019-01-20T10:51:11.071Z,18.27
2019-01-20T10:53:40.372Z,17.30
2019-01-20T10:56:09.624Z,17.30
2019-01-20T10:58:38.880Z,16.57
2019-01-20T11:01:08.178Z,18.10
2019-01-20T11:03:37.436Z,18.55
2019-01-20T11:06:06.800Z,17.50
2019-01-20T11:08:36.402Z,16.97
2019-01-20T11:11:05.701Z,15.60
2019-01-20T11:13:34.971Z,18.50
2019-01-20T11:16:04.227Z,20.10
2019-01-20T11:18:34.104Z,16.43
2019-01-20T11:21:09.840Z,17.20
2019-01-20T11:23:39.210Z,17.23
2019-01-20T11:26:08.523Z,17.40
2019-01-20T11:28:37.738Z,15.87
2019-01-20T11:31:07.380Z,15.60
2019-01-20T11:33:36.631Z,15.27
2019-01-20T11:36:06.192Z,17.80
2019-01-20T11:38:35.488Z,16.73
2019-01-20T11:41:05.455Z,15.50
2019-01-20T11:43:34.712Z,15.27
2019-01-20T11:46:04.008Z,15.37
2019-01-20T11:48:33.655Z,16.43
2019-01-20T11:51:03.839Z,15.50
2019-01-20T11:53:33.144Z,16.83
2019-01-20T11:56:03.572Z,15.47
2019-01-20T11:58:33.690Z,15.77
2019-01-20T12:01:02.983Z,15.50
2019-01-20T12:03:32.244Z,15.57
2019-01-20T12:06:04.152Z,17.07
2019-01-20T12:08:33.665Z,17.70
2019-01-20T12:11:03.863Z,15.43
2019-01-20T12:13:52.543Z,18.03
2019-01-20T12:16:22.513Z,16.87
2019-01-20T12:18:52.068Z,14.27
2019-01-20T12:21:21.324Z,17.90
2019-01-20T12:23:50.891Z,15.77
2019-01-20T12:26:20.148Z,15.70
2019-01-20T12:28:50.544Z,15.40
2019-01-20T12:31:20.729Z,15.23
2019-01-20T12:33:50.695Z,17.23
2019-01-20T12:36:20.569Z,15.27
2019-01-20T12:38:49.871Z,15.37
2019-01-20T12:41:19.169Z,17.90
2019-01-20T12:43:49.104Z,18.13
2019-01-20T12:46:19.071Z,16.77
2019-01-20T12:48:48.320Z,15.53
2019-01-20T12:51:17.575Z,16.10
2019-01-20T12:53:46.880Z,18.47
2019-01-20T12:56:16.132Z,16.60
2019-01-20T12:58:45.704Z,14.97
2019-01-20T13:01:15.016Z,14.50
2019-01-20T13:03:44.272Z,16.70
2019-01-20T13:06:13.528Z,17.37
2019-01-20T13:08:42.839Z,16.13
2019-01-20T13:11:12.417Z,15.37
2019-01-20T13:13:42.404Z,18.50
2019-01-20T13:16:11.703Z,21.13
2019-01-20T13:18:40.951Z,20.57
2019-01-20T13:21:10.819Z,16.37
2019-01-20T13:23:40.250Z,15.90
2019-01-20T13:26:10.175Z,16.87
2019-01-20T13:28:39.427Z,19.00
2019-01-20T13:31:09.303Z,15.97
2019-01-20T13:33:40.043Z,17.77
2019-01-20T13:36:09.339Z,16.97
2019-01-20T13:38:40.342Z,15.65
2019-01-20T13:41:09.976Z,15.50
2019-01-20T13:43:39.288Z,18.50
2019-01-20T13:46:08.676Z,18.80
2019-01-20T13:48:37.975Z,18.97
2019-01-20T13:51:07.805Z,20.70
2019-01-20T13:53:38.374Z,16.63
2019-01-20T13:56:07.775Z,16.00
2019-01-20T13:58:37.032Z,18.03
2019-01-20T14:01:06.639Z,17.60
2019-01-20T14:03:35.909Z,15.68
2019-01-20T14:06:06.292Z,17.50
2019-01-20T14:08:44.034Z,16.40
2019-01-20T14:11:07.744Z,17.20
2019-01-20T14:13:37.044Z,15.53
2019-01-20T14:16:06.644Z,16.50
2019-01-20T14:18:36.571Z,15.80
2019-01-20T14:21:05.900Z,19.00
2019-01-20T14:23:35.190Z,17.17
2019-01-20T14:26:05.776Z,16.30
2019-01-20T14:28:35.031Z,16.97
2019-01-20T14:31:04.332Z,16.43
2019-01-20T14:33:33.631Z,15.77
2019-01-20T14:36:05.092Z,18.33
2019-01-20T14:38:34.404Z,20.53
2019-01-20T14:41:04.575Z,17.17
2019-01-20T14:43:33.872Z,18.83
2019-01-20T14:46:03.488Z,21.03
2019-01-20T14:48:33.316Z,17.57
2019-01-20T14:51:02.909Z,29.53
2019-01-20T14:53:33.236Z,21.87
2019-01-20T14:56:03.869Z,21.80
2019-01-20T14:58:33.790Z,20.20
2019-01-20T15:01:04.703Z,20.03
2019-01-20T15:03:33.963Z,19.03
2019-01-20T15:06:03.410Z,19.67
2019-01-20T15:08:32.668Z,27.47
2019-01-20T15:11:02.851Z,19.07
2019-01-20T15:13:33.640Z,20.53
2019-01-20T15:16:05.607Z,18.53
2019-01-20T15:18:35.159Z,19.20
2019-01-20T15:21:06.203Z,19.90
2019-01-20T15:23:36.125Z,21.03
2019-01-20T15:26:05.472Z,21.00
2019-01-20T15:28:34.787Z,20.43
2019-01-20T15:31:05.471Z,19.90
2019-01-20T15:33:34.773Z,21.00
2019-01-20T15:36:05.288Z,20.10
2019-01-20T15:38:34.540Z,20.67
2019-01-20T15:41:04.715Z,19.57
2019-01-20T15:43:33.977Z,19.70
2019-01-20T15:46:03.232Z,19.97
2019-01-20T15:48:32.540Z,20.27
2019-01-20T15:51:02.421Z,20.53
2019-01-20T15:53:32.245Z,20.77
2019-01-20T15:56:01.751Z,19.83
2019-01-20T15:58:31.459Z,18.27
2019-01-20T16:01:00.760Z,21.57
2019-01-20T16:03:30.584Z,20.17
2019-01-20T16:06:00.556Z,18.83
2019-01-20T16:08:30.040Z,21.17
2019-01-20T16:10:59.294Z,20.80
2019-01-20T16:13:29.269Z,19.73
2019-01-20T16:15:58.524Z,19.83
2019-01-20T16:18:27.780Z,18.80
2019-01-20T16:20:58.039Z,22.30
2019-01-20T16:23:27.292Z,25.67
2019-01-20T16:25:56.611Z,20.50
2019-01-20T16:28:26.159Z,21.17
2019-01-20T16:30:56.968Z,17.27
2019-01-20T16:33:26.896Z,17.33
2019-01-20T16:35:56.204Z,15.07
2019-01-20T16:38:25.812Z,16.13
2019-01-20T16:40:55.637Z,17.80
2019-01-20T16:43:24.931Z,20.13
2019-01-20T16:45:55.476Z,18.77
2019-01-20T16:48:24.731Z,18.47
2019-01-20T16:50:54.550Z,18.33
2019-01-20T16:53:23.844Z,18.17
2019-01-20T16:55:53.480Z,21.43
2019-01-20T16:58:22.788Z,20.47
2019-01-20T17:00:52.043Z,21.03
2019-01-20T17:03:21.872Z,21.53
2019-01-20T17:05:52.012Z,21.70
2019-01-20T17:08:21.340Z,23.07
2019-01-20T17:10:50.932Z,20.90
2019-01-20T17:13:20.320Z,20.90
2019-01-20T17:15:50.208Z,21.27
2019-01-20T17:18:20.027Z,23.07
2019-01-20T17:20:49.896Z,24.87
2019-01-20T17:23:19.999Z,25.63
2019-01-20T17:25:49.248Z,23.10
2019-01-20T17:28:18.551Z,21.97
2019-01-20T17:30:48.430Z,21.57
2019-01-20T17:33:17.683Z,21.77
2019-01-20T17:35:46.985Z,20.23
2019-01-20T17:38:16.489Z,20.73
2019-01-20T17:40:46.352Z,18.10
2019-01-20T17:43:15.607Z,22.40
2019-01-20T17:45:48.605Z,21.10
2019-01-20T17:48:15.780Z,19.60
2019-01-20T17:50:45.095Z,21.23
2019-01-20T17:53:14.350Z,17.53
2019-01-20T17:55:44.673Z,19.80
2019-01-20T17:58:13.977Z,21.03
2019-01-20T18:00:44.922Z,21.97
2019-01-20T18:03:14.739Z,21.70
2019-01-20T18:05:44.737Z,20.23
2019-01-20T18:08:14.062Z,23.40
2019-01-20T18:10:43.484Z,22.23
2019-01-20T18:13:13.412Z,22.23
2019-01-20T18:15:43.422Z,22.40
2019-01-20T18:18:13.644Z,27.60
2019-01-20T18:20:42.959Z,23.87
2019-01-20T18:23:12.211Z,21.70
2019-01-20T18:25:41.468Z,22.13
2019-01-20T18:28:11.834Z,21.47
2019-01-20T18:30:41.084Z,24.53
2019-01-20T18:33:10.686Z,21.90
2019-01-20T18:35:40.671Z,23.93
2019-01-20T18:38:10.600Z,23.97
2019-01-20T18:40:39.920Z,23.00
2019-01-20T18:43:09.233Z,25.10
2019-01-20T18:45:38.483Z,23.47
2019-01-20T18:48:07.808Z,24.63
2019-01-20T18:50:38.208Z,23.60
2019-01-20T18:53:07.759Z,24.27
2019-01-20T18:55:37.086Z,28.27
2019-01-20T18:58:19.049Z,25.43
2019-01-20T19:00:48.384Z,27.03
2019-01-20T19:03:17.707Z,28.53
2019-01-20T19:05:46.974Z,25.57
2019-01-20T19:08:16.744Z,24.90
2019-01-20T19:10:46.007Z,26.70
2019-01-20T19:13:15.276Z,31.10
2019-01-20T19:15:44.579Z,28.70
2019-01-20T19:18:18.838Z,28.73
2019-01-20T19:20:45.431Z,32.70
2019-01-20T19:23:14.761Z,32.93
2019-01-20T19:25:44.116Z,44.63
2019-01-20T19:28:15.038Z,40.27
2019-01-20T19:30:44.584Z,51.33
2019-01-20T19:33:13.848Z,48.47
2019-01-20T19:35:43.497Z,41.50
2019-01-20T19:38:13.106Z,29.97
2019-01-20T19:40:42.365Z,24.63
2019-01-20T19:43:11.912Z,26.27
2019-01-20T19:45:41.222Z,26.40
2019-01-20T19:48:19.638Z,34.20
2019-01-20T19:50:41.868Z,30.03
2019-01-20T19:53:11.471Z,33.57
2019-01-20T19:55:41.084Z,30.73
2019-01-20T19:58:10.347Z,30.70
2019-01-20T20:00:40.339Z,45.17
2019-01-20T20:03:09.601Z,49.60
2019-01-20T20:05:38.919Z,24.00
2019-01-20T20:08:08.223Z,20.17
2019-01-20T20:10:37.731Z,22.40
2019-01-20T20:13:07.975Z,20.43
2019-01-20T20:15:37.295Z,20.20
2019-01-20T20:18:06.603Z,23.10
2019-01-20T20:20:36.247Z,20.00
2019-01-20T20:23:05.799Z,21.80
2019-01-20T20:25:35.975Z,24.73
2019-01-20T20:28:06.483Z,24.47
2019-01-20T20:30:35.741Z,28.07
2019-01-20T20:33:05.072Z,31.27
2019-01-20T20:35:34.327Z,39.30
2019-01-20T20:38:04.718Z,39.43
2019-01-20T20:40:35.711Z,30.03
2019-01-20T20:43:05.393Z,36.27
2019-01-20T20:45:35.223Z,45.37
2019-01-20T20:48:04.481Z,44.70
2019-01-20T20:50:34.358Z,37.27
2019-01-20T20:53:03.623Z,39.87
2019-01-20T20:55:33.127Z,46.77
2019-01-20T20:58:03.504Z,50.90
2019-01-20T21:00:36.828Z,80.70
2019-01-20T21:03:09.265Z,60.27
2019-01-20T21:05:38.523Z,57.17
2019-01-20T21:08:08.095Z,46.00
2019-01-20T21:10:37.388Z,35.43
2019-01-20T21:13:06.891Z,37.87
2019-01-20T21:15:36.218Z,39.43
2019-01-20T21:18:05.467Z,40.67
2019-01-20T21:20:36.011Z,40.17
2019-01-20T21:23:12.108Z,38.70
2019-01-20T21:25:36.764Z,43.07
2019-01-20T21:28:06.599Z,41.40
2019-01-20T21:30:37.395Z,41.47
2019-01-20T21:33:06.695Z,37.97
2019-01-20T21:35:37.423Z,32.63
2019-01-20T21:38:07.419Z,32.23
2019-01-20T21:40:37.040Z,30.47
2019-01-20T21:43:06.648Z,38.73
2019-01-20T21:45:35.952Z,36.37
2019-01-20T21:48:05.887Z,36.77
2019-01-20T21:50:35.152Z,35.80
2019-01-20T21:53:04.467Z,33.03
2019-01-20T21:55:33.727Z,32.57
2019-01-20T21:58:03.738Z,33.13
2019-01-20T22:00:33.037Z,30.57
2019-01-20T22:03:02.707Z,32.57
2019-01-20T22:05:32.306Z,30.07
2019-01-20T22:08:01.597Z,30.00
2019-01-20T22:10:31.116Z,33.13
2019-01-20T22:13:00.424Z,31.97
2019-01-20T22:15:30.347Z,32.47
2019-01-20T22:17:59.674Z,31.17
2019-01-20T22:20:28.936Z,31.40
2019-01-20T22:22:58.910Z,34.07
2019-01-20T22:25:28.784Z,34.90
2019-01-20T22:27:58.083Z,33.20
2019-01-20T22:30:27.760Z,33.30
2019-01-20T22:32:57.287Z,31.13
2019-01-20T22:35:27.611Z,32.23
2019-01-20T22:37:56.872Z,29.80
2019-01-20T22:40:26.595Z,29.33
2019-01-20T22:42:56.480Z,28.13
2019-01-20T22:45:26.208Z,25.33
2019-01-20T22:47:55.474Z,25.90
2019-01-20T22:50:24.809Z,27.93
2019-01-20T22:52:56.353Z,25.63
2019-01-20T22:55:25.887Z,29.50
2019-01-20T22:57:55.195Z,27.20
2019-01-20T23:00:35.004Z,29.83
2019-01-20T23:03:06.008Z,26.97
2019-01-20T23:05:35.931Z,24.43
2019-01-20T23:08:05.239Z,27.50
2019-01-20T23:10:34.496Z,27.47
2019-01-20T23:13:05.491Z,27.83
